Time;durP1;ratioP1;P1;durP2;ratioP2;P2;SDS_P1;SDS_P2;PMS_P1;PMS_P2;Temp;Humidity;BMP_temperature;BMP_pressure;BME280_temperature;BME280_humidity;BME280_pressure;Samples;Min_cycle;Max_cycle;Signal;HPM_P1;HPM_P2
2023/10/06 00:05:56;;;;;;;2.80;2.20;;;22.00;56.60;;;;;;217376;1298;22559;-65
2023/10/06 00:11:11;;;;;;;2.10;1.90;;;22.00;56.60;;;;;;217403;1297;22665;-66
2023/10/06 00:16:14;;;;;;;1.70;1.50;;;22.00;56.60;;;;;;217266;1298;22546;-65
2023/10/06 00:21:21;;;;;;;2.30;2.00;;;22.00;56.60;;;;;;217397;1276;22569;-66
2023/10/06 00:26:26;;;;;;;2.10;1.90;;;21.90;56.60;;;;;;217390;1298;24366;-66
2023/10/06 00:31:31;;;;;;;2.90;2.10;;;21.90;56.70;;;;;;217332;1298;22572;-66
2023/10/06 00:36:35;;;;;;;2.40;1.90;;;21.90;56.70;;;;;;217415;1298;22549;-66
2023/10/06 00:41:43;;;;;;;2.20;2.00;;;21.90;56.70;;;;;;217116;1297;22640;-65
2023/10/06 00:46:46;;;;;;;2.00;1.90;;;21.90;56.80;;;;;;217351;1298;22550;-64
2023/10/06 00:51:49;;;;;;;2.20;1.90;;;21.90;56.80;;;;;;217368;1298;22556;-65
2023/10/06 00:56:57;;;;;;;1.70;1.60;;;21.90;56.70;;;;;;217433;1298;23137;-65
2023/10/06 01:02:01;;;;;;;2.20;1.70;;;21.90;56.70;;;;;;217655;1295;22559;-65
2023/10/06 01:07:04;;;;;;;2.60;1.60;;;21.90;57.10;;;;;;217289;1288;24146;-66
2023/10/06 01:12:12;;;;;;;1.90;1.70;;;21.90;56.80;;;;;;217352;1294;22579;-66
2023/10/06 01:17:16;;;;;;;1.80;1.60;;;21.90;56.70;;;;;;217579;1298;22569;-65
2023/10/06 01:22:30;;;;;;;2.10;1.80;;;21.80;56.70;;;;;;217452;1298;23542;-65
2023/10/06 01:27:33;;;;;;;2.10;1.40;;;21.80;56.70;;;;;;217658;1298;22561;-66
2023/10/06 01:32:36;;;;;;;3.00;2.10;;;21.80;57.10;;;;;;217229;1298;22613;-66
2023/10/06 01:37:41;;;;;;;1.40;1.30;;;21.80;56.90;;;;;;217541;1298;23940;-65
2023/10/06 01:42:45;;;;;;;3.50;2.20;;;21.80;56.80;;;;;;217616;1298;22940;-65
2023/10/06 01:48:36;;;;;;;3.70;2.10;;;21.80;56.80;;;;;;217487;1298;22566;-67
2023/10/06 01:53:22;;;;;;;3.80;2.60;;;21.80;56.90;;;;;;217598;1298;23023;-66
2023/10/06 01:58:25;;;;;;;3.40;2.00;;;21.80;56.90;;;;;;217478;1295;22568;-64
2023/10/06 02:03:28;;;;;;;2.50;1.90;;;21.80;56.90;;;;;;217398;1295;24172;-65
2023/10/06 02:08:31;;;;;;;1.70;1.60;;;21.80;56.90;;;;;;217492;1298;22674;-64
2023/10/06 02:13:35;;;;;;;2.50;1.70;;;21.80;57.10;;;;;;217172;1281;22811;-65
2023/10/06 02:18:39;;;;;;;3.00;1.80;;;21.80;57.00;;;;;;217242;1298;22552;-65
2023/10/06 02:23:43;;;;;;;2.80;1.60;;;21.80;57.10;;;;;;217456;1298;25304;-64
2023/10/06 02:28:50;;;;;;;2.60;1.90;;;21.80;57.00;;;;;;217272;1297;23063;-66
2023/10/06 02:33:53;;;;;;;1.80;1.70;;;21.80;56.90;;;;;;217349;1298;22724;-65
2023/10/06 02:38:56;;;;;;;1.40;1.30;;;21.80;57.30;;;;;;217421;1299;22566;-65
2023/10/06 02:44:13;;;;;;;3.80;2.00;;;21.80;56.90;;;;;;217475;1294;22743;-64
2023/10/06 02:49:24;;;;;;;1.90;1.70;;;21.70;57.00;;;;;;217449;1294;22565;-66
2023/10/06 02:54:30;;;;;;;2.30;2.10;;;21.80;57.00;;;;;;217612;1298;22579;-64
2023/10/06 02:59:34;;;;;;;1.90;1.80;;;21.80;56.90;;;;;;217523;1298;22677;-66
2023/10/06 03:04:39;;;;;;;1.80;1.70;;;21.80;57.30;;;;;;217268;1285;311860;-66
2023/10/06 03:09:47;;;;;;;2.10;1.90;;;21.70;57.00;;;;;;217320;1295;24256;-64
2023/10/06 03:14:50;;;;;;;2.70;1.90;;;21.70;57.00;;;;;;217626;1298;23413;-65
2023/10/06 03:20:18;;;;;;;2.70;2.30;;;21.70;57.00;;;;;;217321;1298;22583;-64
2023/10/06 03:25:19;;;;;;;2.00;1.80;;;21.70;57.00;;;;;;217176;1297;22573;-64
2023/10/06 03:30:27;;;;;;;1.80;1.70;;;21.70;56.90;;;;;;217536;1298;22580;-66
2023/10/06 03:35:39;;;;;;;2.30;2.00;;;21.70;57.00;;;;;;217499;1298;23928;-64
2023/10/06 03:40:59;;;;;;;1.40;1.30;;;21.70;57.00;;;;;;217214;1298;22598;-66
2023/10/06 03:46:03;;;;;;;2.80;1.90;;;21.70;57.00;;;;;;217503;1295;24256;-64
2023/10/06 03:51:06;;;;;;;1.90;1.70;;;21.70;57.10;;;;;;217493;1298;25372;-65
2023/10/06 03:56:09;;;;;;;2.30;2.00;;;21.70;57.10;;;;;;217301;1298;22556;-64
2023/10/06 04:01:13;;;;;;;1.80;1.70;;;21.70;57.00;;;;;;217553;1298;25349;-65
2023/10/06 04:06:16;;;;;;;2.10;1.60;;;21.70;57.20;;;;;;217568;1278;22556;-65
2023/10/06 04:11:20;;;;;;;1.70;1.60;;;21.60;57.10;;;;;;217377;1298;22557;-65
2023/10/06 04:16:24;;;;;;;1.60;1.50;;;21.60;57.10;;;;;;217330;1292;25348;-64
2023/10/06 04:21:27;;;;;;;2.00;1.90;;;21.60;57.30;;;;;;217568;1298;22567;-65
2023/10/06 04:26:30;;;;;;;1.60;1.50;;;21.60;57.20;;;;;;217503;1298;22578;-64
2023/10/06 04:31:33;;;;;;;1.70;1.60;;;21.60;57.20;;;;;;217514;1294;24271;-64
2023/10/06 04:36:37;;;;;;;1.70;1.60;;;21.60;57.10;;;;;;217501;1298;23569;-65
2023/10/06 04:41:41;;;;;;;1.40;1.30;;;21.60;57.10;;;;;;217346;1298;23161;-65
2023/10/06 04:46:44;;;;;;;3.20;2.50;;;21.60;57.20;;;;;;217248;1298;22614;-65
2023/10/06 04:51:48;;;;;;;1.70;1.60;;;21.60;57.20;;;;;;217459;1295;22605;-65
2023/10/06 04:56:52;;;;;;;2.10;1.90;;;21.60;57.20;;;;;;217550;1295;22862;-65
2023/10/06 05:01:55;;;;;;;1.70;1.60;;;21.60;57.10;;;;;;217612;1298;25538;-64
2023/10/06 05:07:00;;;;;;;1.50;1.40;;;21.60;57.10;;;;;;217539;1294;22556;-61
2023/10/06 05:12:04;;;;;;;2.60;1.90;;;21.60;57.10;;;;;;217728;1295;22661;-60
2023/10/06 05:17:08;;;;;;;2.20;1.50;;;21.60;57.20;;;;;;217405;1298;22559;-59
2023/10/06 05:22:11;;;;;;;1.70;1.60;;;21.60;57.60;;;;;;217283;1298;22572;-61
2023/10/06 05:27:14;;;;;;;2.50;1.70;;;21.60;57.20;;;;;;217532;1298;22566;-59
2023/10/06 05:32:17;;;;;;;1.50;1.40;;;21.60;57.30;;;;;;217640;1298;22564;-61
2023/10/06 05:37:20;;;;;;;1.50;1.40;;;21.60;57.30;;;;;;217517;1295;22563;-64
2023/10/06 05:42:23;;;;;;;2.40;2.10;;;21.60;57.70;;;;;;217445;1297;22568;-60
2023/10/06 05:47:26;;;;;;;1.80;1.60;;;21.60;57.20;;;;;;217585;1298;22683;-60
2023/10/06 05:52:29;;;;;;;1.70;1.60;;;21.60;57.20;;;;;;217492;1296;22617;-60
2023/10/06 05:57:31;;;;;;;1.50;1.30;;;21.60;57.30;;;;;;217250;1298;22570;-60
2023/10/06 06:02:37;;;;;;;2.00;1.60;;;21.60;57.30;;;;;;217376;1298;22572;-60
2023/10/06 06:07:42;;;;;;;2.10;1.70;;;21.60;57.30;;;;;;217380;1298;22564;-60
2023/10/06 06:12:47;;;;;;;3.10;2.10;;;21.60;57.60;;;;;;217625;1298;22555;-60
2023/10/06 06:17:51;;;;;;;1.80;1.70;;;21.60;57.20;;;;;;217270;1297;24287;-64
2023/10/06 06:23:02;;;;;;;1.50;1.40;;;21.60;57.10;;;;;;217656;1298;25415;-65
2023/10/06 06:28:05;;;;;;;1.80;1.70;;;21.60;57.20;;;;;;217330;1285;22578;-65
2023/10/06 06:33:12;;;;;;;1.50;1.40;;;21.60;57.10;;;;;;217595;1298;22785;-65
2023/10/06 06:38:17;;;;;;;2.60;1.80;;;21.60;57.20;;;;;;217597;1298;23896;-65
2023/10/06 06:43:20;;;;;;;1.60;1.40;;;21.60;57.00;;;;;;217572;1292;22744;-65
2023/10/06 06:48:26;;;;;;;1.30;1.20;;;21.70;56.90;;;;;;217554;1295;24114;-65
2023/10/06 06:53:30;;;;;;;1.60;1.50;;;21.70;56.80;;;;;;217185;1294;23870;-65
2023/10/06 06:58:33;;;;;;;1.30;1.20;;;21.70;56.80;;;;;;217187;1298;22603;-64
2023/10/06 07:03:37;;;;;;;2.00;1.50;;;21.70;56.90;;;;;;217259;1297;25284;-65
2023/10/06 07:08:40;;;;;;;1.70;1.60;;;21.80;56.80;;;;;;217526;1298;23065;-66
2023/10/06 07:13:45;;;;;;;1.30;1.20;;;21.80;56.80;;;;;;217112;1298;24379;-65
2023/10/06 07:18:48;;;;;;;2.00;1.80;;;21.80;56.80;;;;;;217268;1298;22573;-65
2023/10/06 07:23:52;;;;;;;1.50;1.40;;;21.80;56.70;;;;;;217453;1297;22556;-66
2023/10/06 07:28:56;;;;;;;2.60;2.30;;;21.80;56.90;;;;;;217621;1298;22560;-61
2023/10/06 07:34:02;;;;;;;2.70;1.70;;;21.80;56.90;;;;;;217426;1290;22556;-60
2023/10/06 07:39:08;;;;;;;2.50;1.20;;;21.80;57.00;;;;;;217393;1298;25376;-61
2023/10/06 07:44:11;;;;;;;1.40;1.30;;;21.80;56.80;;;;;;217536;1297;25362;-59
2023/10/06 07:49:14;;;;;;;1.50;1.40;;;21.90;56.60;;;;;;217615;1295;22569;-61
2023/10/06 07:54:17;;;;;;;1.70;1.60;;;22.00;56.50;;;;;;217149;1294;22582;-61
2023/10/06 07:59:19;;;;;;;1.70;1.40;;;22.00;56.40;;;;;;217508;1289;22567;-60
2023/10/06 08:04:23;;;;;;;1.70;1.20;;;22.10;56.40;;;;;;217236;1298;22624;-59
2023/10/06 08:09:26;;;;;;;1.20;1.10;;;22.10;56.10;;;;;;217452;1298;22548;-61
2023/10/06 08:14:29;;;;;;;1.90;1.50;;;22.20;56.40;;;;;;217595;1285;22657;-62
2023/10/06 08:19:32;;;;;;;2.00;1.40;;;22.20;56.20;;;;;;217205;1298;22639;-61
2023/10/06 08:24:35;;;;;;;2.10;1.50;;;22.30;56.30;;;;;;217639;1295;24451;-63
2023/10/06 08:29:38;;;;;;;1.70;1.30;;;22.30;56.20;;;;;;217480;1297;22778;-61
2023/10/06 08:34:41;;;;;;;1.40;1.30;;;22.30;56.00;;;;;;217137;1298;22808;-59
2023/10/06 08:39:46;;;;;;;1.80;1.70;;;22.30;56.10;;;;;;217469;1295;22545;-59
2023/10/06 08:44:49;;;;;;;1.50;1.40;;;22.30;56.20;;;;;;217232;1291;22555;-59
2023/10/06 08:49:56;;;;;;;1.50;1.40;;;22.30;56.60;;;;;;217248;1298;22593;-59
2023/10/06 08:55:00;;;;;;;1.40;1.30;;;22.30;56.10;;;;;;217692;1298;23924;-61
2023/10/06 09:00:06;;;;;;;1.40;1.20;;;22.30;56.40;;;;;;217481;1295;24969;-60
2023/10/06 09:05:14;;;;;;;2.90;1.50;;;22.20;56.70;;;;;;217467;1293;22556;-60
2023/10/06 09:10:18;;;;;;;1.70;1.40;;;22.30;56.80;;;;;;217522;1283;22767;-59
2023/10/06 09:15:21;;;;;;;1.40;1.30;;;22.40;56.50;;;;;;217556;1294;24300;-60
2023/10/06 09:20:36;;;;;;;1.30;1.10;;;22.40;56.40;;;;;;217642;1298;22553;-60
2023/10/06 09:25:45;;;;;;;1.60;1.30;;;22.40;56.40;;;;;;217409;1292;25355;-61
2023/10/06 09:30:57;;;;;;;1.50;1.30;;;22.40;56.50;;;;;;217559;1298;22569;-59
2023/10/06 09:36:03;;;;;;;1.60;1.50;;;22.40;56.80;;;;;;217435;1292;24098;-59
2023/10/06 09:41:09;;;;;;;1.60;1.50;;;22.50;56.50;;;;;;217549;1294;25376;-61
2023/10/06 09:46:13;;;;;;;2.20;1.50;;;22.50;56.40;;;;;;217530;1292;24235;-60
2023/10/06 09:51:19;;;;;;;1.50;1.40;;;22.60;56.40;;;;;;217514;1294;22552;-60
2023/10/06 09:56:22;;;;;;;2.10;1.60;;;22.50;56.70;;;;;;217502;1298;22612;-59
2023/10/06 10:01:26;;;;;;;1.70;1.10;;;22.50;56.80;;;;;;217679;1295;24396;-62
2023/10/06 10:06:30;;;;;;;1.70;1.60;;;22.50;56.50;;;;;;217403;1294;22806;-61
2023/10/06 10:11:39;;;;;;;2.50;1.20;;;22.50;56.60;;;;;;217482;1298;24382;-60
2023/10/06 10:17:08;;;;;;;1.30;1.20;;;22.50;56.60;;;;;;217505;1298;25365;-61
2023/10/06 10:22:16;;;;;;;3.60;2.10;;;22.50;56.70;;;;;;217526;1292;23028;-62
2023/10/06 10:27:22;;;;;;;2.20;1.50;;;22.50;56.60;;;;;;217611;1298;22564;-61
2023/10/06 10:32:29;;;;;;;1.20;1.10;;;22.50;56.60;;;;;;217495;1298;26676;-60
2023/10/06 10:37:32;;;;;;;1.70;1.60;;;22.50;56.60;;;;;;217437;1295;23313;-61
2023/10/06 10:42:40;;;;;;;2.20;1.30;;;22.50;56.70;;;;;;217579;1297;22557;-62
2023/10/06 10:47:43;;;;;;;1.30;1.20;;;22.50;56.60;;;;;;217422;1295;22631;-59
2023/10/06 10:52:46;;;;;;;1.30;1.20;;;22.60;56.90;;;;;;217731;1298;24248;-61
2023/10/06 10:57:50;;;;;;;1.60;1.50;;;22.60;56.50;;;;;;217329;1298;24442;-60
2023/10/06 11:02:59;;;;;;;1.70;1.60;;;22.60;56.50;;;;;;217608;1294;24227;-62
2023/10/06 11:08:05;;;;;;;1.70;1.50;;;22.60;56.50;;;;;;217629;1295;24250;-61
2023/10/06 11:13:19;;;;;;;1.30;1.20;;;22.60;56.50;;;;;;217350;1298;22569;-62
2023/10/06 11:18:22;;;;;;;1.30;1.20;;;22.60;56.60;;;;;;217469;1284;22559;-61
2023/10/06 11:23:41;;;;;;;1.50;1.30;;;22.60;56.60;;;;;;217286;1299;22562;-62
2023/10/06 11:28:44;;;;;;;1.50;1.40;;;22.60;57.00;;;;;;217461;1297;22575;-58
2023/10/06 11:33:49;;;;;;;1.30;1.20;;;22.70;56.70;;;;;;217477;1298;22564;-61
2023/10/06 11:38:52;;;;;;;2.30;1.20;;;22.70;56.80;;;;;;217647;1296;24484;-61
2023/10/06 11:43:55;;;;;;;1.10;1.00;;;22.80;56.60;;;;;;217506;1298;22563;-61
2023/10/06 11:49:09;;;;;;;1.00;1.00;;;22.80;56.70;;;;;;217688;1283;22667;-61
2023/10/06 11:54:12;;;;;;;1.40;1.20;;;22.80;56.40;;;;;;217687;1298;25453;-61
2023/10/06 11:59:20;;;;;;;1.50;1.40;;;22.90;56.40;;;;;;216880;1298;22585;-60
2023/10/06 12:04:32;;;;;;;1.50;1.40;;;22.90;56.40;;;;;;217465;1291;22566;-60
2023/10/06 12:09:35;;;;;;;1.20;1.10;;;22.90;56.30;;;;;;217459;1298;22702;-65
2023/10/06 12:14:38;;;;;;;1.40;1.30;;;22.90;56.30;;;;;;217446;1298;24253;-65
2023/10/06 12:19:44;;;;;;;1.70;1.40;;;22.90;56.30;;;;;;217327;1298;22576;-65
2023/10/06 12:24:47;;;;;;;1.50;1.40;;;23.00;56.40;;;;;;217595;1298;23025;-67
2023/10/06 12:29:55;;;;;;;1.50;1.40;;;23.00;56.20;;;;;;217407;1294;22614;-66
2023/10/06 12:34:59;;;;;;;1.40;1.30;;;23.00;56.20;;;;;;217656;1292;22572;-64
2023/10/06 12:40:03;;;;;;;1.30;1.20;;;23.00;56.10;;;;;;217380;1298;22685;-66
2023/10/06 12:45:08;;;;;;;1.10;1.00;;;23.10;56.20;;;;;;217705;1298;24319;-66
2023/10/06 12:50:18;;;;;;;1.10;1.10;;;23.00;56.20;;;;;;217449;1298;22565;-65
2023/10/06 12:55:24;;;;;;;1.70;1.20;;;23.10;56.20;;;;;;217492;1298;24381;-64
2023/10/06 13:00:28;;;;;;;1.40;1.30;;;23.10;56.80;;;;;;217713;1298;24401;-65
2023/10/06 13:05:31;;;;;;;1.50;1.40;;;23.00;56.20;;;;;;217438;1298;22552;-66
2023/10/06 13:10:33;;;;;;;1.70;1.30;;;23.00;56.60;;;;;;217358;1298;22677;-65
2023/10/06 13:15:36;;;;;;;1.60;1.50;;;23.00;56.20;;;;;;217283;1298;23247;-64
2023/10/06 13:20:40;;;;;;;1.40;1.30;;;23.00;56.30;;;;;;217154;1297;22676;-60
2023/10/06 13:25:45;;;;;;;1.30;1.10;;;23.00;56.50;;;;;;217439;1294;25491;-60
2023/10/06 13:30:51;;;;;;;2.30;1.20;;;22.90;56.60;;;;;;217344;1298;22552;-61
2023/10/06 13:35:54;;;;;;;1.30;1.20;;;22.90;56.70;;;;;;217309;1295;22636;-59
2023/10/06 13:40:56;;;;;;;1.40;1.30;;;22.90;57.00;;;;;;217549;1298;22517;-60
2023/10/06 13:45:59;;;;;;;1.50;1.30;;;22.90;56.60;;;;;;217480;1298;22668;-59
2023/10/06 13:51:02;;;;;;;1.30;1.20;;;22.90;56.60;;;;;;217353;1296;22606;-60
2023/10/06 13:56:05;;;;;;;1.10;1.00;;;22.90;57.00;;;;;;217272;1298;22946;-63
2023/10/06 14:01:09;;;;;;;1.30;1.20;;;22.90;56.60;;;;;;217050;1297;23029;-60
2023/10/06 14:06:12;;;;;;;1.10;1.10;;;22.90;56.70;;;;;;217049;1298;24292;-61
2023/10/06 14:11:15;;;;;;;1.10;1.00;;;22.90;56.70;;;;;;216997;1298;22701;-60
2023/10/06 14:16:23;;;;;;;1.20;1.10;;;22.90;56.70;;;;;;217374;1298;24280;-60
2023/10/06 14:21:28;;;;;;;1.30;1.20;;;22.90;56.60;;;;;;217309;1298;22568;-60
2023/10/06 14:26:31;;;;;;;1.50;1.40;;;22.90;56.70;;;;;;217407;1292;24256;-59
2023/10/06 14:31:48;;;;;;;1.40;1.30;;;22.80;56.80;;;;;;217352;1298;22547;-61
2023/10/06 14:36:59;;;;;;;1.40;1.30;;;22.80;56.80;;;;;;217481;1294;22584;-60
2023/10/06 14:47:26;;;;;;;1.50;1.40;;;22.70;57.10;;;;;;217339;1298;22566;-60
2023/10/06 14:52:31;;;;;;;1.80;1.70;;;22.70;57.10;;;;;;217380;1298;22553;-60
2023/10/06 14:57:34;;;;;;;1.10;1.10;;;22.70;56.80;;;;;;217262;1298;22549;-60
2023/10/06 15:02:37;;;;;;;1.80;1.60;;;22.80;56.90;;;;;;217188;1292;22553;-61
2023/10/06 15:07:41;;;;;;;1.90;1.50;;;22.70;56.80;;;;;;217366;1292;210836;-62
2023/10/06 15:12:45;;;;;;;1.60;1.50;;;22.70;57.00;;;;;;217373;1298;22678;-60
2023/10/06 15:17:48;;;;;;;2.40;1.70;;;22.70;57.40;;;;;;217422;1298;22576;-60
2023/10/06 15:23:12;;;;;;;2.10;1.90;;;22.70;57.10;;;;;;217288;1298;22564;-61
2023/10/06 15:28:15;;;;;;;4.40;2.00;;;22.70;57.10;;;;;;217535;1295;22682;-61
2023/10/06 15:33:38;;;;;;;1.60;1.40;;;22.70;57.00;;;;;;217177;1298;22549;-60
2023/10/06 15:38:43;;;;;;;1.40;1.30;;;22.60;56.90;;;;;;217356;1294;22795;-66
2023/10/06 15:43:46;;;;;;;1.20;1.20;;;22.60;56.90;;;;;;217425;1297;22698;-66
2023/10/06 15:48:55;;;;;;;1.80;1.60;;;22.60;57.00;;;;;;217317;1297;22701;-66
2023/10/06 15:53:58;;;;;;;1.30;1.20;;;22.60;56.90;;;;;;217338;1298;22564;-66
2023/10/06 15:59:00;;;;;;;1.30;1.20;;;22.70;56.90;;;;;;217253;1298;22575;-67
2023/10/06 16:04:04;;;;;;;2.30;1.30;;;22.60;56.80;;;;;;217215;1294;22550;-66
2023/10/06 16:09:09;;;;;;;1.40;1.30;;;22.60;56.80;;;;;;217052;1298;22567;-66
2023/10/06 16:14:15;;;;;;;1.70;1.60;;;22.60;57.10;;;;;;217285;1297;22674;-66
2023/10/06 16:19:18;;;;;;;1.40;1.30;;;22.60;56.80;;;;;;217275;1297;24793;-66
2023/10/06 16:24:21;;;;;;;1.60;1.50;;;22.60;56.90;;;;;;217327;1298;22676;-66
2023/10/06 16:29:25;;;;;;;1.80;1.50;;;22.60;56.90;;;;;;217188;1298;22696;-65
2023/10/06 16:34:29;;;;;;;1.70;1.40;;;22.50;56.90;;;;;;217530;1298;22550;-65
2023/10/06 16:39:35;;;;;;;1.50;1.40;;;22.60;57.00;;;;;;217327;1298;26555;-65
2023/10/06 16:44:40;;;;;;;1.90;1.70;;;22.50;57.00;;;;;;217495;1298;22572;-66
2023/10/06 16:49:43;;;;;;;2.70;1.30;;;22.50;57.00;;;;;;217506;1298;22565;-60
2023/10/06 16:54:46;;;;;;;2.20;1.60;;;22.50;56.90;;;;;;217477;1297;24431;-61
2023/10/06 16:59:50;;;;;;;1.50;1.40;;;22.50;57.00;;;;;;217352;1294;22549;-61
2023/10/06 17:04:53;;;;;;;1.50;1.40;;;22.50;57.00;;;;;;217269;1298;22554;-60
2023/10/06 17:09:56;;;;;;;1.80;1.50;;;22.50;57.00;;;;;;217459;1296;22569;-61
2023/10/06 17:14:59;;;;;;;1.80;1.30;;;22.50;57.00;;;;;;217257;1294;22800;-61
2023/10/06 17:20:04;;;;;;;2.30;1.90;;;22.50;57.30;;;;;;217503;1294;22796;-60
2023/10/06 17:25:09;;;;;;;1.50;1.40;;;22.50;57.00;;;;;;217329;1287;22555;-61
2023/10/06 17:30:18;;;;;;;1.50;1.40;;;22.50;56.60;;;;;;217619;1286;22553;-61
2023/10/06 17:35:21;;;;;;;1.60;1.50;;;22.50;57.00;;;;;;217485;1291;22554;-62
2023/10/06 17:40:24;;;;;;;2.50;1.70;;;22.40;57.00;;;;;;217585;1298;24244;-58
2023/10/06 17:45:28;;;;;;;2.20;1.60;;;22.40;57.10;;;;;;217520;1289;22648;-59
2023/10/06 17:50:32;;;;;;;2.00;1.70;;;22.40;57.00;;;;;;217466;1291;25369;-61
2023/10/06 17:55:36;;;;;;;1.50;1.30;;;22.40;57.10;;;;;;217569;1294;22548;-60
2023/10/06 18:00:41;;;;;;;1.70;1.60;;;22.40;57.00;;;;;;217572;1291;22800;-65
2023/10/06 18:05:52;;;;;;;1.50;1.40;;;22.40;57.10;;;;;;217415;1294;22899;-65
2023/10/06 18:10:56;;;;;;;;;;;22.50;57.00;;;;;;217494;1291;22623;-65
2023/10/06 18:16:05;;;;;;;1.80;1.60;;;22.40;57.00;;;;;;217353;1298;25319;-65
2023/10/06 18:21:09;;;;;;;1.60;1.50;;;22.40;57.10;;;;;;217057;1292;22614;-67
2023/10/06 18:26:14;;;;;;;1.70;1.60;;;22.50;57.40;;;;;;217396;1299;22928;-67
2023/10/06 18:31:18;;;;;;;4.10;2.40;;;22.50;56.90;;;;;;217332;1294;24347;-65
2023/10/06 18:36:22;;;;;;;2.20;1.70;;;22.40;56.90;;;;;;217448;1285;23963;-65
2023/10/06 18:41:28;;;;;;;1.50;1.40;;;22.40;57.00;;;;;;217442;1285;22555;-64
2023/10/06 18:46:34;;;;;;;2.00;1.80;;;22.40;57.40;;;;;;217579;1292;22556;-66
2023/10/06 18:51:40;;;;;;;1.70;1.60;;;22.40;57.00;;;;;;217391;1298;24282;-64
2023/10/06 18:56:45;;;;;;;2.30;2.00;;;22.30;57.10;;;;;;217514;1294;24290;-65
2023/10/06 19:01:52;;;;;;;2.80;1.60;;;22.30;57.10;;;;;;217422;1294;24272;-66
2023/10/06 19:07:00;;;;;;;1.80;1.70;;;22.40;57.10;;;;;;217492;1298;23540;-66
2023/10/06 19:12:04;;;;;;;2.10;1.80;;;22.30;57.00;;;;;;217300;1298;23049;-62
2023/10/06 19:17:11;;;;;;;1.90;1.70;;;22.30;57.00;;;;;;217226;1298;24478;-62
2023/10/06 19:22:16;;;;;;;2.00;1.80;;;22.40;57.00;;;;;;217448;1291;22575;-60
2023/10/06 19:27:27;;;;;;;4.00;2.10;;;22.30;57.40;;;;;;217361;1294;24350;-63
2023/10/06 19:32:33;;;;;;;2.50;1.80;;;22.30;57.10;;;;;;217648;1294;22675;-61
2023/10/06 19:37:38;;;;;;;1.60;1.50;;;22.30;57.40;;;;;;217474;1298;22738;-62
2023/10/06 19:42:43;;;;;;;1.60;1.50;;;22.30;57.10;;;;;;217690;1298;23928;-61
2023/10/06 19:47:48;;;;;;;2.10;1.90;;;22.30;57.10;;;;;;217213;1291;22547;-61
2023/10/06 19:52:53;;;;;;;1.80;1.70;;;22.30;57.40;;;;;;216303;1303;22559;-60
2023/10/06 19:57:58;;;;;;;2.50;2.30;;;22.30;57.00;;;;;;216383;1280;25564;-61
2023/10/06 20:03:02;;;;;;;3.00;2.40;;;22.30;57.00;;;;;;216559;1303;22560;-60
2023/10/06 20:08:08;;;;;;;1.90;1.70;;;22.30;57.20;;;;;;216432;1297;22640;-62
2023/10/06 20:13:12;;;;;;;2.60;1.90;;;22.20;57.40;;;;;;215997;1303;22562;-61
2023/10/06 20:18:16;;;;;;;2.30;2.10;;;22.30;57.40;;;;;;217470;1294;23137;-60
2023/10/06 20:23:21;;;;;;;3.70;2.10;;;22.20;57.10;;;;;;217293;1297;22675;-62
2023/10/06 20:28:26;;;;;;;1.50;1.40;;;22.30;57.20;;;;;;217590;1295;24438;-62
2023/10/06 20:33:30;;;;;;;2.20;1.80;;;22.20;57.10;;;;;;217554;1298;23345;-61
2023/10/06 20:38:34;;;;;;;2.10;1.90;;;22.20;57.10;;;;;;217439;1276;23924;-61
2023/10/06 20:43:38;;;;;;;2.20;1.90;;;22.20;57.10;;;;;;217380;1292;22812;-60
2023/10/06 20:48:41;;;;;;;3.00;2.20;;;22.20;57.10;;;;;;217216;1298;24402;-60
2023/10/06 20:53:44;;;;;;;1.60;1.50;;;22.20;57.10;;;;;;217278;1298;24337;-61
2023/10/06 20:58:48;;;;;;;2.20;1.90;;;22.20;57.00;;;;;;217102;1295;22548;-61
2023/10/06 21:03:51;;;;;;;2.70;1.80;;;22.20;57.10;;;;;;217377;1294;22545;-61
2023/10/06 21:08:55;;;;;;;2.10;1.90;;;22.20;57.10;;;;;;217591;1298;24309;-61
2023/10/06 21:13:59;;;;;;;2.00;1.70;;;22.20;57.00;;;;;;217419;1295;22591;-62
2023/10/06 21:19:02;;;;;;;1.90;1.70;;;22.20;57.00;;;;;;217494;1285;22680;-61
2023/10/06 21:24:05;;;;;;;1.90;1.70;;;22.20;57.00;;;;;;217466;1292;22555;-65
2023/10/06 21:29:08;;;;;;;2.00;1.80;;;22.20;57.60;;;;;;217415;1298;22677;-66
2023/10/06 21:34:12;;;;;;;2.50;2.00;;;22.20;57.00;;;;;;217562;1295;22545;-66
2023/10/06 21:39:20;;;;;;;1.70;1.60;;;22.20;57.00;;;;;;217598;1294;22549;-66
2023/10/06 21:44:24;;;;;;;2.40;1.90;;;22.20;57.00;;;;;;217499;1298;22683;-67
2023/10/06 21:49:27;;;;;;;2.10;1.90;;;22.20;57.00;;;;;;217498;1291;23944;-65
2023/10/06 21:54:31;;;;;;;2.70;2.00;;;22.20;57.00;;;;;;217590;1298;25374;-64
2023/10/06 21:59:35;;;;;;;1.80;1.60;;;22.20;57.00;;;;;;217473;1296;22757;-66
2023/10/06 22:04:37;;;;;;;3.30;2.60;;;22.10;57.00;;;;;;217456;1298;23937;-64
2023/10/06 22:09:41;;;;;;;2.20;2.00;;;22.10;57.00;;;;;;217278;1298;22675;-66
2023/10/06 22:14:44;;;;;;;1.80;1.70;;;22.10;57.40;;;;;;217178;1297;23012;-66
2023/10/06 22:19:47;;;;;;;1.90;1.80;;;22.10;57.00;;;;;;217181;1298;22573;-65
2023/10/06 22:24:49;;;;;;;3.20;2.20;;;22.10;56.90;;;;;;217462;1298;22549;-65
2023/10/06 22:29:52;;;;;;;2.40;2.10;;;22.10;57.00;;;;;;217413;1295;22576;-66
2023/10/06 22:34:58;;;;;;;4.20;2.50;;;22.10;56.90;;;;;;217072;1298;24247;-64
2023/10/06 22:40:00;;;;;;;2.30;2.10;;;22.10;56.90;;;;;;217222;1289;22579;-62
2023/10/06 22:45:04;;;;;;;2.10;1.90;;;22.10;57.20;;;;;;217321;1292;22861;-62
2023/10/06 22:50:09;;;;;;;4.50;2.50;;;22.10;56.90;;;;;;217483;1294;22545;-62
2023/10/06 22:55:14;;;;;;;2.30;2.10;;;22.10;56.80;;;;;;217367;1298;25377;-60
2023/10/06 23:00:17;;;;;;;2.80;2.30;;;22.10;56.90;;;;;;217464;1294;25647;-60
2023/10/06 23:05:23;;;;;;;1.90;1.80;;;22.10;56.90;;;;;;217286;1298;22644;-60
2023/10/06 23:10:27;;;;;;;2.60;2.30;;;22.10;56.80;;;;;;217419;1295;22568;-60
2023/10/06 23:15:31;;;;;;;2.90;2.50;;;22.10;56.80;;;;;;217124;1298;22573;-62
2023/10/06 23:20:41;;;;;;;2.10;2.00;;;22.00;56.50;;;;;;217492;1298;24199;-60
2023/10/06 23:25:49;;;;;;;3.00;2.00;;;22.00;56.70;;;;;;217245;1298;22552;-60
2023/10/06 23:30:52;;;;;;;2.30;2.10;;;22.00;57.10;;;;;;217170;1298;22774;-60
2023/10/06 23:35:55;;;;;;;2.00;1.80;;;22.10;56.80;;;;;;217595;1291;25458;-60
2023/10/06 23:40:57;;;;;;;3.90;3.30;;;22.00;56.70;;;;;;217239;1298;24234;-61
2023/10/06 23:46:05;;;;;;;2.70;2.30;;;22.00;56.80;;;;;;217238;1292;22552;-62
2023/10/06 23:51:13;;;;;;;2.50;2.30;;;22.10;56.80;;;;;;217116;1292;22560;-60
2023/10/06 23:56:25;;;;;;;2.90;2.30;;;22.00;56.70;;;;;;217277;1298;22553;-61
